Time;durP1;ratioP1;P1;durP2;ratioP2;P2;SDS_P1;SDS_P2;PMS_P1;PMS_P2;Temp;Humidity;BMP_temperature;BMP_pressure;BME280_temperature;BME280_humidity;BME280_pressure;Samples;Min_cycle;Max_cycle;Signal;HPM_P1;HPM_P2
2021/01/05 00:00:21;;;;;;;27.07;11.77;;;0.50;99.90;;;;;;5332566;27;20200;-73
2021/01/05 00:02:52;;;;;;;22.00;11.17;;;0.50;99.90;;;;;;5331290;27;20189;-73
2021/01/05 00:05:24;;;;;;;25.67;12.80;;;0.50;99.90;;;;;;5335540;27;20198;-73
2021/01/05 00:07:55;;;;;;;22.43;10.50;;;0.50;99.90;;;;;;5335522;27;20190;-76
2021/01/05 00:10:26;;;;;;;26.13;11.77;;;0.50;99.90;;;;;;5332190;27;20600;-74
2021/01/05 00:12:59;;;;;;;22.83;11.53;;;0.50;99.90;;;;;;5314208;27;20183;-74
2021/01/05 00:15:31;;;;;;;25.47;11.43;;;0.50;99.90;;;;;;5308306;27;20201;-75
2021/01/05 00:18:03;;;;;;;25.87;12.07;;;0.50;99.90;;;;;;5314597;27;20210;-76
2021/01/05 00:20:37;;;;;;;34.20;12.23;;;0.50;99.90;;;;;;5315608;27;20194;-74
2021/01/05 00:23:17;;;;;;;23.30;12.23;;;0.50;99.90;;;;;;5315123;27;20187;-74
2021/01/05 00:25:48;;;;;;;25.03;12.53;;;0.60;99.90;;;;;;5314346;27;20194;-74
2021/01/05 00:28:20;;;;;;;26.60;13.87;;;0.60;99.90;;;;;;5314495;27;20195;-75
2021/01/05 00:30:51;;;;;;;24.53;12.20;;;0.60;99.90;;;;;;5313850;27;20198;-74
2021/01/05 00:33:23;;;;;;;27.37;13.93;;;0.60;99.90;;;;;;5313047;27;20282;-74
2021/01/05 00:35:54;;;;;;;29.53;14.80;;;0.70;99.90;;;;;;5313776;27;20558;-72
2021/01/05 00:38:26;;;;;;;27.07;14.23;;;0.70;99.90;;;;;;5314261;27;20198;-74
2021/01/05 00:40:57;;;;;;;29.57;15.07;;;0.70;99.90;;;;;;5315426;27;20191;-73
2021/01/05 00:43:29;;;;;;;34.03;14.97;;;0.70;99.90;;;;;;5296287;27;20278;-76
2021/01/05 00:46:00;;;;;;;25.83;14.77;;;0.70;99.90;;;;;;5313580;27;20201;-74
2021/01/05 00:48:32;;;;;;;37.20;15.90;;;0.70;99.90;;;;;;5314420;27;20191;-76
2021/01/05 00:51:05;;;;;;;37.83;17.83;;;0.70;99.90;;;;;;5314781;27;20194;-74
2021/01/05 00:53:37;;;;;;;33.23;16.20;;;0.80;99.90;;;;;;5317624;27;20198;-75
2021/01/05 00:56:09;;;;;;;37.00;16.43;;;0.80;99.90;;;;;;5316119;27;20572;-74
2021/01/05 00:58:40;;;;;;;37.57;16.97;;;0.80;99.90;;;;;;5316223;27;20190;-74
2021/01/05 01:01:12;;;;;;;37.10;17.17;;;0.80;99.90;;;;;;5315364;27;20191;-74
2021/01/05 01:03:43;;;;;;;34.80;16.70;;;0.80;99.90;;;;;;5315562;27;20194;-73
2021/01/05 01:06:16;;;;;;;38.83;17.37;;;0.80;99.90;;;;;;5314386;27;20209;-74
2021/01/05 01:08:47;;;;;;;37.23;16.83;;;0.80;99.90;;;;;;5313863;27;20211;-75
2021/01/05 01:11:18;;;;;;;35.50;15.87;;;0.80;99.90;;;;;;5325371;27;20608;-74
2021/01/05 01:13:50;;;;;;;33.17;15.80;;;0.90;99.90;;;;;;5335980;27;20186;-75
2021/01/05 01:16:21;;;;;;;33.70;16.27;;;0.90;99.90;;;;;;5335410;27;20201;-74
2021/01/05 01:18:54;;;;;;;37.97;16.30;;;0.90;99.90;;;;;;5335555;27;20195;-74
2021/01/05 01:21:26;;;;;;;34.00;15.70;;;0.90;99.90;;;;;;5316354;27;20243;-74
2021/01/05 01:23:57;;;;;;;41.03;16.00;;;0.90;99.90;;;;;;5334777;27;20200;-74
2021/01/05 01:26:29;;;;;;;39.40;16.97;;;0.90;99.90;;;;;;5317049;27;20628;-74
2021/01/05 01:29:00;;;;;;;40.20;15.97;;;0.90;99.90;;;;;;5335325;27;20224;-73
2021/01/05 01:31:32;;;;;;;34.53;15.77;;;0.90;99.90;;;;;;5334850;27;20193;-75
2021/01/05 01:34:04;;;;;;;35.53;16.03;;;0.90;99.90;;;;;;5334913;27;20286;-74
2021/01/05 01:36:36;;;;;;;36.10;15.63;;;0.90;99.90;;;;;;5335072;27;20187;-73
2021/01/05 01:39:08;;;;;;;43.00;15.33;;;0.90;99.90;;;;;;5335261;27;20191;-74
2021/01/05 01:41:39;;;;;;;36.87;14.60;;;0.90;99.90;;;;;;5334877;27;20534;-73
2021/01/05 01:44:21;;;;;;;33.30;15.40;;;0.90;99.90;;;;;;5335462;27;20197;-74
2021/01/05 01:46:55;;;;;;;31.23;13.83;;;0.90;99.90;;;;;;5336033;27;20193;-75
2021/01/05 01:49:27;;;;;;;29.23;13.90;;;0.90;99.90;;;;;;5334822;27;20217;-73
2021/01/05 01:52:00;;;;;;;30.93;13.90;;;0.90;99.90;;;;;;5334886;27;20189;-73
2021/01/05 01:54:50;;;;;;;29.93;13.77;;;0.90;99.90;;;;;;5334315;27;20190;-74
2021/01/05 01:57:32;;;;;;;31.80;13.50;;;0.90;99.90;;;;;;5334117;27;20197;-75
2021/01/05 02:00:27;;;;;;;29.07;13.20;;;0.90;99.90;;;;;;5333865;27;20194;-74
2021/01/05 02:03:17;;;;;;;31.83;13.73;;;0.90;99.90;;;;;;5334077;27;20193;-74
2021/01/05 02:06:08;;;;;;;33.20;14.80;;;0.90;99.90;;;;;;5333861;27;20194;-74
2021/01/05 02:13:11;;;;;;;29.83;13.50;;;1.00;99.90;;;;;;5332345;27;20240;-73
2021/01/05 02:16:10;;;;;;;28.47;13.60;;;1.00;99.90;;;;;;5333841;27;20182;-75
2021/01/05 02:18:54;;;;;;;34.47;14.63;;;1.00;99.90;;;;;;5334026;27;20669;-74
2021/01/05 02:21:51;;;;;;;35.63;14.53;;;1.00;99.90;;;;;;5334121;27;20221;-74
2021/01/05 02:28:22;;;;;;;38.23;14.93;;;1.10;99.90;;;;;;5335612;27;20177;-73
2021/01/05 02:31:26;;;;;;;36.33;14.73;;;1.00;99.90;;;;;;5334262;27;20221;-74
2021/01/05 02:34:03;;;;;;;32.53;14.70;;;1.00;99.90;;;;;;5226358;28;20546;-73
2021/01/05 02:36:56;;;;;;;33.10;14.53;;;1.00;99.90;;;;;;5225683;28;20233;-74
2021/01/05 02:39:49;;;;;;;36.53;13.50;;;1.00;99.90;;;;;;5226447;28;20612;-73
2021/01/05 02:42:44;;;;;;;34.93;15.00;;;1.00;99.90;;;;;;5226338;28;20197;-73
2021/01/05 02:45:55;;;;;;;35.97;14.60;;;1.00;99.90;;;;;;5226036;28;20208;-73
2021/01/05 02:49:04;;;;;;;32.23;14.47;;;1.00;99.90;;;;;;5225938;28;20189;-74
2021/01/05 02:52:16;;;;;;;35.50;15.10;;;1.10;99.90;;;;;;5227121;28;20209;-74
2021/01/05 02:55:06;;;;;;;31.10;13.63;;;1.00;99.90;;;;;;5225829;28;20194;-73
2021/01/05 02:57:47;;;;;;;30.63;13.60;;;1.00;99.90;;;;;;5225959;28;20208;-74
2021/01/05 03:00:24;;;;;;;38.80;14.67;;;1.00;99.90;;;;;;5225761;28;20223;-74
2021/01/05 03:03:07;;;;;;;32.40;14.20;;;1.00;99.90;;;;;;5226278;28;20224;-75
2021/01/05 03:05:47;;;;;;;33.27;14.13;;;1.10;99.90;;;;;;5226146;28;20205;-73
2021/01/05 03:12:31;;;;;;;39.03;13.63;;;1.10;99.90;;;;;;5330777;27;20600;-73
2021/01/05 03:15:27;;;;;;;33.20;14.43;;;1.10;99.90;;;;;;5333425;27;20190;-74
2021/01/05 03:18:13;;;;;;;36.57;14.50;;;1.10;99.90;;;;;;5334081;27;20201;-74
2021/01/05 03:20:52;;;;;;;32.57;15.50;;;1.10;99.90;;;;;;5333653;27;20213;-74
2021/01/05 03:27:10;;;;;;;33.93;13.83;;;1.00;99.90;;;;;;5333194;27;20253;-74
2021/01/05 03:29:42;;;;;;;35.27;14.77;;;1.10;99.90;;;;;;5333268;27;20217;-74
2021/01/05 03:32:13;;;;;;;36.70;14.67;;;1.10;99.90;;;;;;5340487;27;20549;-75
2021/01/05 03:34:45;;;;;;;35.43;15.57;;;1.00;99.90;;;;;;5333533;27;20217;-76
2021/01/05 03:37:16;;;;;;;36.87;16.70;;;1.00;99.90;;;;;;5333466;27;20198;-77
2021/01/05 03:43:34;;;;;;;38.77;16.13;;;1.00;99.90;;;;;;5337432;27;20158;-73
2021/01/05 03:46:05;;;;;;;35.63;15.63;;;1.00;99.90;;;;;;5336886;27;20198;-76
2021/01/05 03:48:36;;;;;;;41.33;16.33;;;1.00;99.90;;;;;;5337026;27;20195;-74
2021/01/05 03:51:08;;;;;;;41.97;16.50;;;1.00;99.90;;;;;;5341662;27;20632;-74
2021/01/05 03:53:40;;;;;;;35.13;16.23;;;1.00;99.90;;;;;;5336448;27;20633;-76
2021/01/05 03:56:12;;;;;;;39.90;16.40;;;1.00;99.90;;;;;;5336914;27;20194;-76
2021/01/05 03:58:43;;;;;;;34.63;14.53;;;1.00;99.90;;;;;;5337182;27;20344;-77
2021/01/05 04:01:16;;;;;;;38.97;15.80;;;1.00;99.90;;;;;;5338101;27;20205;-77
2021/01/05 04:03:51;;;;;;;37.23;15.20;;;1.00;99.90;;;;;;5338159;27;20269;-76
2021/01/05 04:06:26;;;;;;;38.93;16.67;;;1.00;99.90;;;;;;5338117;27;20285;-75
2021/01/05 04:08:58;;;;;;;38.77;16.43;;;1.00;99.90;;;;;;5337587;27;20210;-76
2021/01/05 04:11:29;;;;;;;32.63;15.50;;;1.00;99.90;;;;;;5336940;27;20238;-77
2021/01/05 04:14:00;;;;;;;32.60;14.90;;;1.00;99.90;;;;;;5338049;27;20205;-77
2021/01/05 04:16:32;;;;;;;38.13;15.43;;;1.00;99.90;;;;;;5336850;27;20190;-77
2021/01/05 04:19:04;;;;;;;33.97;15.03;;;1.00;99.90;;;;;;5319105;27;20206;-76
2021/01/05 04:21:35;;;;;;;34.87;15.20;;;1.00;99.90;;;;;;5336390;27;20629;-76
2021/01/05 04:24:07;;;;;;;32.67;15.30;;;1.00;99.90;;;;;;5336228;27;20205;-75
2021/01/05 04:26:38;;;;;;;37.40;15.73;;;1.00;99.90;;;;;;5336022;27;20190;-76
2021/01/05 04:29:10;;;;;;;35.50;13.97;;;1.00;99.90;;;;;;5335913;27;20217;-76
2021/01/05 04:31:43;;;;;;;35.17;14.80;;;1.00;99.90;;;;;;5336237;27;20587;-75
2021/01/05 04:34:16;;;;;;;36.23;14.90;;;1.00;99.90;;;;;;5336263;27;20196;-74
2021/01/05 04:36:47;;;;;;;42.50;15.67;;;1.00;99.90;;;;;;5336083;27;20201;-74
2021/01/05 04:39:18;;;;;;;42.40;15.13;;;1.00;99.90;;;;;;5336182;27;20194;-76
2021/01/05 04:41:56;;;;;;;28.83;13.77;;;1.00;99.90;;;;;;5337342;27;20194;-74
2021/01/05 04:44:31;;;;;;;33.77;14.50;;;0.90;99.90;;;;;;5339570;27;20318;-75
2021/01/05 04:47:17;;;;;;;40.43;15.03;;;1.00;99.90;;;;;;5338615;27;20189;-74
2021/01/05 04:49:58;;;;;;;33.23;13.80;;;1.00;99.90;;;;;;5336195;27;20213;-73
2021/01/05 04:52:37;;;;;;;31.57;13.97;;;1.00;99.90;;;;;;5335950;27;20190;-73
2021/01/05 04:55:27;;;;;;;35.33;14.83;;;1.00;99.90;;;;;;5335734;27;20189;-74
2021/01/05 04:58:09;;;;;;;33.37;13.60;;;1.00;99.90;;;;;;5335711;27;20194;-74
2021/01/05 05:00:41;;;;;;;29.13;13.47;;;1.00;99.90;;;;;;5335313;27;20194;-76
2021/01/05 05:03:38;;;;;;;35.10;14.30;;;1.00;99.90;;;;;;5335487;27;20199;-77
2021/01/05 05:06:25;;;;;;;32.07;13.53;;;1.00;99.90;;;;;;5317268;27;20202;-74
2021/01/05 05:13:01;;;;;;;33.47;13.60;;;1.10;99.90;;;;;;5331555;27;20274;-76
2021/01/05 05:15:56;;;;;;;32.93;13.33;;;1.10;99.90;;;;;;5334922;27;20670;-74
2021/01/05 05:18:41;;;;;;;32.03;13.23;;;1.10;99.90;;;;;;5335156;27;20551;-75
2021/01/05 05:21:34;;;;;;;32.67;13.47;;;1.10;99.90;;;;;;5335548;27;20633;-75
2021/01/05 05:28:15;;;;;;;30.33;13.30;;;1.10;99.90;;;;;;5334752;27;20202;-73
2021/01/05 05:30:46;;;;;;;35.70;14.70;;;1.20;99.90;;;;;;5334473;27;20217;-75
2021/01/05 05:33:43;;;;;;;38.57;14.20;;;1.20;99.90;;;;;;5334509;27;20194;-75
2021/01/05 05:36:20;;;;;;;38.97;14.93;;;1.20;99.90;;;;;;5334781;27;20540;-72
2021/01/05 05:39:19;;;;;;;35.37;14.67;;;1.20;99.90;;;;;;5334721;27;20190;-72
2021/01/05 05:42:16;;;;;;;40.47;14.57;;;1.20;99.90;;;;;;5334372;27;20182;-73
2021/01/05 05:45:10;;;;;;;38.97;14.63;;;1.30;99.90;;;;;;5334504;27;20190;-72
2021/01/05 05:47:50;;;;;;;37.70;13.70;;;1.30;99.90;;;;;;5334469;27;20209;-72
2021/01/05 05:50:38;;;;;;;31.37;13.50;;;1.30;99.90;;;;;;5334554;27;20298;-72
2021/01/05 05:53:26;;;;;;;33.67;14.13;;;1.30;99.90;;;;;;5334260;27;20186;-70
2021/01/05 05:56:06;;;;;;;45.37;15.17;;;1.30;99.90;;;;;;5334430;27;20198;-72
2021/01/05 05:58:47;;;;;;;39.17;14.47;;;1.40;99.90;;;;;;5334001;27;20233;-74
2021/01/05 06:01:28;;;;;;;38.80;14.47;;;1.40;99.90;;;;;;5333057;27;20551;-71
2021/01/05 06:04:00;;;;;;;30.23;14.07;;;1.40;99.90;;;;;;5333922;27;20190;-72
2021/01/05 06:06:32;;;;;;;35.87;14.70;;;1.40;99.90;;;;;;5334360;27;20502;-74
2021/01/05 06:12:59;;;;;;;37.43;13.63;;;1.50;99.90;;;;;;5333832;27;20672;-74
2021/01/05 06:15:35;;;;;;;32.97;13.90;;;1.40;99.90;;;;;;5333762;27;20191;-77
2021/01/05 06:18:10;;;;;;;32.67;14.40;;;1.40;99.90;;;;;;5334129;27;20189;-76
2021/01/05 06:20:41;;;;;;;35.50;13.67;;;1.40;99.90;;;;;;5333699;27;20190;-75
2021/01/05 06:23:13;;;;;;;34.73;14.03;;;1.50;99.90;;;;;;5333649;27;20683;-75
2021/01/05 06:25:46;;;;;;;37.33;15.10;;;1.50;99.90;;;;;;5315006;27;20194;-74
2021/01/05 06:28:18;;;;;;;41.93;14.83;;;1.50;99.90;;;;;;5333501;27;20198;-76
2021/01/05 06:30:49;;;;;;;37.40;14.43;;;1.50;99.90;;;;;;5333667;27;20574;-74
2021/01/05 06:33:20;;;;;;;34.97;14.03;;;1.50;99.90;;;;;;5333758;27;20267;-73
2021/01/05 06:35:53;;;;;;;38.90;15.03;;;1.50;99.90;;;;;;5334209;27;20190;-74
2021/01/05 06:38:24;;;;;;;38.70;14.90;;;1.50;99.90;;;;;;5333851;27;20687;-75
2021/01/05 06:40:56;;;;;;;34.07;14.43;;;1.50;99.90;;;;;;5333646;27;20202;-74
2021/01/05 06:43:27;;;;;;;35.03;13.77;;;1.50;99.90;;;;;;5333415;27;20193;-75
2021/01/05 06:45:59;;;;;;;35.83;13.13;;;1.50;99.90;;;;;;5333494;27;20186;-75
2021/01/05 06:48:31;;;;;;;41.13;14.37;;;1.50;99.90;;;;;;5333861;27;20186;-76
2021/01/05 06:51:06;;;;;;;39.40;14.37;;;1.50;99.90;;;;;;5333304;27;20218;-74
2021/01/05 06:53:37;;;;;;;30.87;13.47;;;1.50;99.90;;;;;;5334224;27;20192;-75
2021/01/05 06:56:13;;;;;;;38.27;15.00;;;1.50;99.90;;;;;;5315376;27;20297;-72
2021/01/05 06:58:44;;;;;;;34.10;14.93;;;1.50;99.90;;;;;;5333402;27;20194;-76
2021/01/05 07:01:16;;;;;;;38.97;14.60;;;1.50;99.90;;;;;;5334354;27;20186;-73
2021/01/05 07:03:47;;;;;;;34.13;14.50;;;1.50;99.90;;;;;;5334311;27;20242;-75
2021/01/05 07:06:21;;;;;;;34.80;15.17;;;1.50;99.90;;;;;;5333734;27;20205;-72
2021/01/05 07:12:49;;;;;;;34.17;15.07;;;1.50;99.90;;;;;;5332716;27;20221;-70
2021/01/05 07:15:21;;;;;;;35.53;13.47;;;1.50;99.90;;;;;;5333584;27;20198;-72
2021/01/05 07:17:52;;;;;;;33.17;14.63;;;1.50;99.90;;;;;;5333056;27;20190;-72
2021/01/05 07:20:23;;;;;;;35.10;15.07;;;1.50;99.90;;;;;;5332995;27;20296;-72
2021/01/05 07:22:55;;;;;;;32.80;14.97;;;1.50;99.90;;;;;;5332959;27;20186;-71
2021/01/05 07:29:22;;;;;;;34.53;14.03;;;1.50;99.90;;;;;;5333473;27;20208;-72
2021/01/05 07:31:54;;;;;;;34.90;15.17;;;1.60;99.90;;;;;;5333151;27;20190;-71
2021/01/05 07:34:25;;;;;;;33.27;13.80;;;1.60;99.90;;;;;;5333382;27;20547;-75
2021/01/05 07:37:01;;;;;;;35.53;14.43;;;1.60;99.90;;;;;;5332914;27;20194;-76
2021/01/05 07:39:33;;;;;;;34.13;15.57;;;1.60;99.90;;;;;;5333479;27;20196;-73
2021/01/05 07:42:19;;;;;;;39.23;15.37;;;1.60;99.90;;;;;;5333420;27;20531;-75
2021/01/05 07:44:55;;;;;;;35.53;16.27;;;1.60;99.90;;;;;;5333283;27;20554;-76
2021/01/05 07:47:32;;;;;;;40.90;17.10;;;1.60;99.90;;;;;;5333089;27;20190;-74
2021/01/05 07:50:08;;;;;;;35.90;16.20;;;1.60;99.90;;;;;;5332651;27;20210;-74
2021/01/05 07:52:41;;;;;;;39.10;17.30;;;1.60;99.90;;;;;;5315941;27;20209;-74
2021/01/05 07:55:18;;;;;;;41.07;17.57;;;1.60;99.90;;;;;;5332858;27;20186;-74
2021/01/05 07:57:51;;;;;;;36.30;15.93;;;1.60;99.90;;;;;;5333101;27;20216;-75
2021/01/05 08:00:26;;;;;;;32.23;14.77;;;1.60;99.90;;;;;;5334162;27;20194;-73
2021/01/05 08:02:57;;;;;;;30.23;14.97;;;1.60;99.90;;;;;;5332661;27;20198;-74
2021/01/05 08:05:29;;;;;;;34.10;14.67;;;1.70;99.90;;;;;;5332522;27;20190;-75
2021/01/05 08:08:00;;;;;;;33.87;15.63;;;1.70;99.90;;;;;;5332696;27;20277;-72
2021/01/05 08:10:35;;;;;;;32.67;14.23;;;1.70;99.90;;;;;;5332616;27;20219;-74
2021/01/05 08:13:09;;;;;;;35.53;15.20;;;1.70;99.90;;;;;;5332373;27;20229;-75
2021/01/05 08:15:41;;;;;;;31.83;15.03;;;1.70;99.90;;;;;;5333454;27;20628;-74
2021/01/05 08:18:13;;;;;;;37.97;15.83;;;1.70;99.90;;;;;;5333086;27;20187;-70
2021/01/05 08:20:45;;;;;;;33.27;14.87;;;1.70;99.90;;;;;;5314653;27;20273;-77
2021/01/05 08:23:18;;;;;;;39.47;16.73;;;1.70;99.90;;;;;;5333098;27;20566;-71
2021/01/05 08:25:50;;;;;;;40.57;15.30;;;1.70;99.90;;;;;;5335152;27;20186;-72
2021/01/05 08:28:21;;;;;;;33.87;15.40;;;1.70;99.90;;;;;;5334887;27;20543;-71
2021/01/05 08:30:52;;;;;;;36.87;17.17;;;1.70;99.90;;;;;;5336699;27;20214;-70
2021/01/05 08:33:24;;;;;;;36.53;15.60;;;1.70;99.90;;;;;;5337858;27;20183;-72
2021/01/05 08:35:55;;;;;;;44.63;16.77;;;1.70;99.90;;;;;;5338583;27;20199;-73
2021/01/05 08:38:27;;;;;;;39.90;17.00;;;1.80;99.90;;;;;;5337759;27;20226;-75
2021/01/05 08:40:59;;;;;;;39.77;16.13;;;1.80;99.90;;;;;;5337811;27;20194;-79
2021/01/05 08:43:30;;;;;;;43.40;16.90;;;1.80;99.90;;;;;;5335220;27;20195;-69
2021/01/05 08:46:02;;;;;;;42.10;17.07;;;1.80;99.90;;;;;;5331794;27;20190;-70
2021/01/05 08:48:33;;;;;;;42.03;17.20;;;1.80;99.90;;;;;;5326648;27;20544;-70
2021/01/05 08:51:04;;;;;;;39.00;15.87;;;1.80;99.90;;;;;;5335673;27;20224;-71
2021/01/05 08:53:36;;;;;;;39.17;15.70;;;1.80;99.90;;;;;;5335407;27;20198;-71
2021/01/05 08:56:16;;;;;;;39.20;16.97;;;1.90;99.90;;;;;;5335591;27;20208;-71
2021/01/05 08:58:49;;;;;;;43.10;17.57;;;1.90;99.90;;;;;;5316462;27;20554;-71
2021/01/05 09:01:21;;;;;;;39.17;14.93;;;1.90;99.90;;;;;;5335938;27;20559;-72
2021/01/05 09:03:52;;;;;;;42.13;17.40;;;1.90;99.90;;;;;;5335284;27;20194;-71
2021/01/05 09:06:24;;;;;;;44.47;17.20;;;1.90;99.90;;;;;;5336023;27;20198;-68
2021/01/05 09:08:56;;;;;;;48.27;17.63;;;1.90;99.90;;;;;;5335374;27;20182;-70
2021/01/05 09:11:28;;;;;;;51.90;17.43;;;2.00;99.90;;;;;;5335901;27;20245;-68
2021/01/05 09:14:00;;;;;;;40.33;15.87;;;2.00;99.90;;;;;;5335721;27;20621;-68
2021/01/05 09:16:34;;;;;;;38.63;15.30;;;2.00;99.90;;;;;;5334895;27;20186;-68
2021/01/05 09:19:06;;;;;;;42.93;16.83;;;2.10;99.90;;;;;;5335119;27;20289;-68
2021/01/05 09:21:37;;;;;;;40.73;15.70;;;2.10;99.90;;;;;;5335196;27;20195;-67
2021/01/05 09:24:09;;;;;;;38.77;15.87;;;2.10;99.90;;;;;;5334965;27;20197;-67
2021/01/05 09:26:40;;;;;;;44.93;16.30;;;2.10;99.90;;;;;;5334554;27;20187;-67
2021/01/05 09:29:12;;;;;;;42.03;16.47;;;2.20;99.90;;;;;;5334769;27;20198;-67
2021/01/05 09:31:46;;;;;;;44.20;17.43;;;2.20;99.90;;;;;;5335252;27;20738;-70
2021/01/05 09:34:20;;;;;;;45.93;16.37;;;2.20;99.90;;;;;;5335077;27;20558;-69
2021/01/05 09:36:52;;;;;;;40.40;16.30;;;2.20;99.90;;;;;;5316600;27;20193;-67
2021/01/05 09:43:12;;;;;;;37.80;14.70;;;2.30;99.90;;;;;;5334424;27;20163;-69
2021/01/05 09:45:45;;;;;;;35.93;15.30;;;2.30;99.90;;;;;;5335884;27;20655;-68
2021/01/05 09:48:17;;;;;;;32.43;13.87;;;2.30;99.90;;;;;;5336330;27;20273;-69
2021/01/05 09:50:49;;;;;;;30.53;13.90;;;2.30;99.90;;;;;;5317010;27;20214;-68
2021/01/05 09:53:21;;;;;;;35.40;15.17;;;2.30;99.90;;;;;;5333853;27;20216;-66
2021/01/05 09:59:39;;;;;;;31.80;14.07;;;2.30;99.90;;;;;;5334102;27;20212;-68
2021/01/05 10:02:12;;;;;;;32.87;14.67;;;2.30;99.90;;;;;;5333876;27;20186;-69
2021/01/05 10:04:43;;;;;;;34.80;14.23;;;2.30;99.90;;;;;;5334109;27;20273;-69
2021/01/05 10:07:15;;;;;;;29.80;13.60;;;2.30;99.90;;;;;;5334375;27;20197;-68
2021/01/05 10:09:46;;;;;;;31.17;14.27;;;2.40;99.90;;;;;;5334187;27;20217;-69
2021/01/05 10:12:17;;;;;;;29.77;12.70;;;2.40;99.90;;;;;;5333945;27;20242;-67
2021/01/05 10:14:49;;;;;;;25.37;11.80;;;2.40;99.90;;;;;;5334706;27;20208;-69
2021/01/05 10:17:20;;;;;;;23.77;11.20;;;2.40;99.90;;;;;;5334435;27;20201;-69
2021/01/05 10:19:53;;;;;;;22.47;10.87;;;2.40;99.90;;;;;;5317498;27;20269;-70
2021/01/05 10:22:25;;;;;;;26.13;10.50;;;2.40;99.90;;;;;;5335468;27;20186;-69
2021/01/05 10:24:56;;;;;;;22.63;10.83;;;2.40;99.90;;;;;;5335724;27;20197;-68
2021/01/05 10:27:28;;;;;;;21.83;10.93;;;2.50;99.90;;;;;;5336812;27;20186;-73
2021/01/05 10:29:59;;;;;;;21.27;10.40;;;2.50;99.90;;;;;;5335302;27;20210;-72
2021/01/05 10:32:31;;;;;;;24.07;11.43;;;2.50;99.90;;;;;;5334802;27;20182;-71
2021/01/05 10:35:04;;;;;;;25.63;11.70;;;2.50;99.90;;;;;;5334546;27;20201;-71
2021/01/05 10:37:36;;;;;;;20.60;9.97;;;2.50;99.90;;;;;;5333424;27;20197;-74
2021/01/05 10:40:09;;;;;;;19.23;10.37;;;2.50;99.90;;;;;;5333162;27;20197;-71
2021/01/05 10:42:45;;;;;;;20.40;11.13;;;2.50;99.90;;;;;;5333298;27;20190;-71
2021/01/05 10:45:25;;;;;;;18.03;9.37;;;2.50;99.90;;;;;;5333616;27;20581;-69
2021/01/05 10:47:57;;;;;;;20.03;10.53;;;2.60;99.90;;;;;;5332710;27;20197;-66
2021/01/05 10:50:28;;;;;;;21.33;10.50;;;2.60;99.90;;;;;;5333084;27;20574;-68
2021/01/05 10:52:59;;;;;;;16.50;9.60;;;2.60;99.90;;;;;;5333000;27;20190;-69
2021/01/05 10:55:31;;;;;;;16.30;8.50;;;2.60;99.90;;;;;;5333457;27;20570;-69
2021/01/05 10:58:03;;;;;;;17.90;10.03;;;2.60;99.90;;;;;;5332817;27;20190;-69
2021/01/05 11:00:34;;;;;;;17.50;9.50;;;2.60;99.90;;;;;;5333030;27;20644;-66
2021/01/05 11:03:06;;;;;;;17.53;9.30;;;2.60;99.90;;;;;;5333219;27;20191;-70
2021/01/05 11:05:37;;;;;;;19.73;9.77;;;2.60;99.90;;;;;;5333175;27;20554;-67
2021/01/05 11:08:09;;;;;;;19.80;10.17;;;2.60;99.90;;;;;;5333049;27;20197;-72
2021/01/05 11:10:40;;;;;;;24.07;10.73;;;2.60;99.90;;;;;;5332691;27;20218;-69
2021/01/05 11:13:12;;;;;;;19.60;9.37;;;2.60;99.90;;;;;;5332885;27;20230;-69
2021/01/05 11:15:43;;;;;;;17.70;9.27;;;2.60;99.90;;;;;;5332965;27;20190;-71
2021/01/05 11:18:14;;;;;;;18.17;9.63;;;2.60;99.90;;;;;;5332785;27;20210;-72
2021/01/05 11:20:46;;;;;;;18.03;8.37;;;2.60;99.90;;;;;;5332842;27;20190;-70
2021/01/05 11:23:17;;;;;;;16.03;9.00;;;2.60;99.90;;;;;;5333082;27;20192;-71
2021/01/05 11:25:49;;;;;;;15.30;7.97;;;2.60;99.90;;;;;;5314464;27;20186;-73
2021/01/05 11:28:20;;;;;;;15.83;8.80;;;2.70;99.90;;;;;;5332714;27;20186;-70
2021/01/05 11:30:52;;;;;;;20.93;8.77;;;2.70;99.90;;;;;;5332744;27;20214;-70
2021/01/05 11:33:23;;;;;;;11.60;8.10;;;2.70;99.90;;;;;;5314486;27;20544;-69
2021/01/05 11:35:55;;;;;;;15.87;8.43;;;2.70;99.90;;;;;;5332811;27;20553;-70
2021/01/05 11:38:26;;;;;;;15.87;8.33;;;2.70;99.90;;;;;;5332397;27;20187;-68
2021/01/05 11:41:30;;;;;;;15.43;8.73;;;2.70;99.90;;;;;;5332552;27;20193;-71
2021/01/05 11:44:03;;;;;;;18.00;9.37;;;2.70;99.90;;;;;;5332422;27;20196;-70
2021/01/05 11:46:34;;;;;;;19.07;10.00;;;2.70;99.90;;;;;;5314905;27;20598;-72
2021/01/05 11:49:06;;;;;;;18.50;9.40;;;2.70;99.90;;;;;;5332779;27;20237;-70
2021/01/05 11:51:37;;;;;;;18.37;9.27;;;2.70;99.90;;;;;;5331926;27;20214;-71
2021/01/05 11:54:09;;;;;;;17.03;9.33;;;2.70;99.90;;;;;;5332546;27;20544;-73
2021/01/05 11:56:40;;;;;;;16.13;9.00;;;2.70;99.90;;;;;;5314235;27;20194;-77
2021/01/05 11:59:14;;;;;;;18.83;9.10;;;2.70;99.90;;;;;;5316207;27;20583;-75
2021/01/05 12:01:45;;;;;;;16.60;9.63;;;2.70;99.90;;;;;;5336573;27;20186;-76
2021/01/05 12:04:17;;;;;;;19.87;10.23;;;2.60;99.90;;;;;;5317757;27;20190;-78
2021/01/05 12:06:51;;;;;;;16.63;9.07;;;2.60;99.90;;;;;;5336275;27;20188;-65
2021/01/05 12:09:25;;;;;;;16.53;8.80;;;2.60;99.90;;;;;;5336150;27;20230;-74
2021/01/05 12:12:03;;;;;;;19.63;9.33;;;2.60;99.90;;;;;;5335300;27;20226;-76
2021/01/05 12:14:35;;;;;;;15.50;9.33;;;2.60;99.90;;;;;;5336333;27;20198;-72
2021/01/05 12:17:06;;;;;;;23.07;9.63;;;2.60;99.90;;;;;;5337038;27;20194;-77
2021/01/05 12:19:41;;;;;;;20.23;9.13;;;2.60;99.90;;;;;;5336181;27;20201;-75
2021/01/05 12:22:13;;;;;;;18.90;8.60;;;2.60;99.90;;;;;;5336308;27;20203;-75
2021/01/05 12:28:40;;;;;;;19.73;9.50;;;2.60;99.90;;;;;;5321896;27;20205;-75
2021/01/05 12:31:21;;;;;;;19.40;9.60;;;2.60;99.90;;;;;;5333926;27;20221;-75
2021/01/05 12:34:00;;;;;;;20.63;9.83;;;2.60;99.90;;;;;;5334622;27;20671;-73
2021/01/05 12:36:34;;;;;;;20.17;9.80;;;2.60;99.90;;;;;;5337145;27;20182;-71
2021/01/05 12:39:12;;;;;;;19.90;9.03;;;2.50;99.90;;;;;;5311358;27;20183;-73
2021/01/05 12:45:39;;;;;;;22.87;8.50;;;2.50;99.90;;;;;;5335272;27;20571;-71
2021/01/05 12:48:11;;;;;;;23.53;9.47;;;2.50;99.90;;;;;;5335077;27;20190;-70
2021/01/05 12:50:46;;;;;;;19.77;9.20;;;2.50;99.90;;;;;;5336323;27;20214;-74
2021/01/05 12:53:17;;;;;;;20.30;9.30;;;2.50;99.90;;;;;;5334906;27;20193;-70
2021/01/05 12:55:49;;;;;;;22.53;9.67;;;2.50;99.90;;;;;;5315799;27;20193;-68
2021/01/05 12:58:22;;;;;;;20.97;9.80;;;2.50;99.90;;;;;;5315434;27;20182;-73
2021/01/05 13:00:54;;;;;;;19.03;9.30;;;2.50;99.90;;;;;;5335180;27;20213;-77
2021/01/05 13:03:26;;;;;;;18.50;8.97;;;2.50;99.90;;;;;;5331663;27;20186;-69
2021/01/05 13:05:58;;;;;;;20.17;9.57;;;2.50;99.90;;;;;;5333966;27;20190;-72
2021/01/05 13:08:30;;;;;;;16.93;9.33;;;2.50;99.90;;;;;;5334687;27;20209;-72
2021/01/05 13:11:09;;;;;;;18.63;9.80;;;2.50;99.90;;;;;;5332162;27;20214;-68
2021/01/05 13:13:41;;;;;;;21.57;9.80;;;2.50;99.90;;;;;;5327691;27;20234;-67
2021/01/05 13:16:25;;;;;;;21.63;8.97;;;2.50;99.90;;;;;;5333968;27;20205;-79
2021/01/05 13:18:59;;;;;;;17.23;8.90;;;2.50;99.90;;;;;;5335038;27;20521;-75
2021/01/05 13:21:37;;;;;;;18.97;9.53;;;2.60;99.90;;;;;;5335253;27;20636;-69
2021/01/05 13:24:13;;;;;;;19.87;9.30;;;2.50;99.90;;;;;;5332720;27;20196;-72
2021/01/05 13:26:46;;;;;;;22.37;9.10;;;2.50;99.90;;;;;;5335132;27;20202;-72
2021/01/05 13:29:31;;;;;;;21.20;9.87;;;2.50;99.90;;;;;;5334501;27;20231;-69
2021/01/05 13:32:09;;;;;;;17.90;9.17;;;2.60;99.90;;;;;;5334577;27;20190;-70
2021/01/05 13:34:41;;;;;;;20.47;9.47;;;2.50;99.90;;;;;;5334470;27;20190;-71
2021/01/05 13:37:16;;;;;;;21.07;10.47;;;2.60;99.90;;;;;;5334804;27;20196;-71
2021/01/05 13:39:48;;;;;;;17.40;9.67;;;2.60;99.90;;;;;;5334844;27;20193;-70
2021/01/05 13:42:22;;;;;;;21.40;9.77;;;2.60;99.90;;;;;;5334027;27;20201;-70
2021/01/05 13:44:53;;;;;;;22.67;9.80;;;2.60;99.90;;;;;;5334545;27;20227;-68
2021/01/05 13:47:25;;;;;;;18.70;10.03;;;2.60;99.90;;;;;;5336307;27;20191;-71
2021/01/05 13:49:57;;;;;;;23.77;9.90;;;2.60;99.90;;;;;;5334098;27;20210;-69
2021/01/05 13:52:50;;;;;;;19.47;10.20;;;2.60;99.90;;;;;;5333923;27;20194;-69
2021/01/05 13:59:07;;;;;;;25.80;10.77;;;2.60;99.90;;;;;;5333785;27;20253;-73
2021/01/05 14:01:39;;;;;;;21.47;10.17;;;2.60;99.90;;;;;;5333958;27;20186;-69
2021/01/05 14:04:10;;;;;;;26.43;11.40;;;2.60;99.90;;;;;;5333738;27;20195;-70
2021/01/05 14:06:42;;;;;;;20.27;10.57;;;2.50;99.90;;;;;;5334282;27;20190;-68
2021/01/05 14:09:14;;;;;;;20.77;10.57;;;2.50;99.90;;;;;;5334158;27;20193;-68
2021/01/05 14:16:26;;;;;;;20.53;10.00;;;2.40;99.90;;;;;;5313324;27;20183;-71
2021/01/05 14:18:57;;;;;;;23.27;10.70;;;2.30;99.90;;;;;;5313129;27;20190;-68
2021/01/05 14:21:36;;;;;;;17.53;9.23;;;2.30;99.90;;;;;;5313414;27;20194;-72